createdAt,value
2022-12-31T00:01:28.427Z,96032.38
2022-12-31T00:04:31.617Z,96047.00
2022-12-31T00:10:41.761Z,96037.94
2022-12-31T00:13:46.565Z,96022.63
2022-12-31T00:16:49.674Z,96043.28
2022-12-31T00:19:52.770Z,96054.19
2022-12-31T00:22:57.202Z,96048.88
2022-12-31T00:26:04.413Z,96058.72
2022-12-31T00:29:07.540Z,96048.59
2022-12-31T00:32:10.638Z,96070.44
2022-12-31T00:35:13.707Z,96065.91
2022-12-31T00:38:18.148Z,96069.91
2022-12-31T00:41:22.447Z,96063.50
2022-12-31T00:44:25.524Z,96063.50
2022-12-31T00:47:28.494Z,96078.44
2022-12-31T00:50:31.568Z,96081.34
2022-12-31T00:53:36.448Z,96078.44
2022-12-31T00:56:39.417Z,96081.09
2022-12-31T00:59:42.530Z,96088.28
2022-12-31T01:02:45.676Z,96083.28
2022-12-31T01:05:50.466Z,96096.53
2022-12-31T01:08:57.099Z,96088.88
2022-12-31T01:12:00.120Z,96093.09
2022-12-31T01:15:03.218Z,96096.53
2022-12-31T01:18:07.550Z,96106.41
2022-12-31T01:21:12.314Z,96095.22
2022-12-31T01:24:18.028Z,96094.97
2022-12-31T01:27:21.071Z,96082.53
2022-12-31T01:30:24.224Z,96106.69
2022-12-31T01:33:27.267Z,96100.84
2022-12-31T01:36:32.929Z,96099.50
2022-12-31T01:39:37.376Z,96098.69
2022-12-31T01:42:40.395Z,96099.25
2022-12-31T01:45:44.695Z,96105.88
2022-12-31T01:48:51.058Z,96106.97
2022-12-31T01:51:58.825Z,96097.16
2022-12-31T01:55:16.226Z,96111.50
2022-12-31T01:58:23.400Z,96105.09
2022-12-31T02:01:29.826Z,96114.16
2022-12-31T02:04:33.051Z,96093.97
2022-12-31T02:07:36.064Z,96104.56
2022-12-31T02:10:40.659Z,96111.78
2022-12-31T02:13:43.831Z,96116.81
2022-12-31T02:16:53.779Z,96109.38
2022-12-31T02:20:32.965Z,96104.56
2022-12-31T02:24:19.477Z,96115.22
2022-12-31T02:27:38.974Z,96109.66
2022-12-31T02:30:46.754Z,96114.44
2022-12-31T02:33:55.894Z,96116.88
2022-12-31T02:37:00.734Z,96116.88
2022-12-31T02:40:04.299Z,96113.16
2022-12-31T02:43:07.509Z,96127.25
2022-12-31T02:46:21.603Z,96134.16
2022-12-31T02:49:28.483Z,96133.38
2022-12-31T02:52:43.773Z,96129.09
2022-12-31T02:55:54.704Z,96135.50
2022-12-31T02:59:21.870Z,96133.38
2022-12-31T03:02:31.404Z,96137.09
2022-12-31T03:05:38.793Z,96127.28
2022-12-31T03:08:57.640Z,96130.97
2022-12-31T03:12:19.367Z,96130.41
2022-12-31T03:15:25.070Z,96125.13
2022-12-31T03:18:57.107Z,96117.13
2022-12-31T03:22:17.472Z,96125.66
2022-12-31T03:25:36.144Z,96121.13
2022-12-31T03:28:41.198Z,96118.72
2022-12-31T03:31:44.307Z,96129.09
2022-12-31T03:34:48.800Z,96128.59
2022-12-31T03:37:52.831Z,96119.81
2022-12-31T03:40:55.903Z,96120.59
2022-12-31T03:43:58.948Z,96124.06
2022-12-31T03:47:01.987Z,96116.63
2022-12-31T03:50:08.335Z,96125.94
2022-12-31T03:53:11.827Z,96128.59
2022-12-31T03:56:14.818Z,96128.59
2022-12-31T03:59:17.855Z,96135.78
2022-12-31T04:02:26.304Z,96137.66
2022-12-31T04:05:33.758Z,96143.50
2022-12-31T04:08:36.831Z,96133.41
2022-12-31T04:11:39.780Z,96138.72
2022-12-31T04:14:42.845Z,96123.03
2022-12-31T04:17:46.030Z,96119.59
2022-12-31T04:20:50.713Z,96139.78
2022-12-31T04:23:53.977Z,96141.13
2022-12-31T04:27:00.776Z,96138.22
2022-12-31T04:30:07.974Z,96150.44
2022-12-31T04:33:10.957Z,96153.13
2022-12-31T04:36:15.410Z,96152.84
2022-12-31T04:39:18.497Z,96157.88
2022-12-31T04:42:21.607Z,96149.94
2022-12-31T04:45:24.693Z,96164.84
2022-12-31T04:48:27.888Z,96153.72
2022-12-31T04:51:32.876Z,96170.97
2022-12-31T04:54:35.924Z,96170.16
2022-12-31T04:57:38.974Z,96180.81
2022-12-31T05:00:42.120Z,96182.94
2022-12-31T05:03:45.153Z,96193.34
2022-12-31T05:06:49.846Z,96194.94
2022-12-31T05:09:52.913Z,96197.31
2022-12-31T05:12:55.954Z,96199.97
2022-12-31T05:15:58.962Z,96206.09
2022-12-31T05:19:02.052Z,96209.84
2022-12-31T05:22:23.952Z,96217.03
2022-12-31T05:25:27.437Z,96220.50
2022-12-31T05:28:30.499Z,96221.56
2022-12-31T05:31:33.476Z,96222.34
2022-12-31T05:34:36.461Z,96226.09
2022-12-31T05:37:40.904Z,96219.19
2022-12-31T05:40:43.938Z,96238.63
2022-12-31T05:43:47.357Z,96227.16
2022-12-31T05:46:50.482Z,96225.28
2022-12-31T05:49:53.493Z,96222.91
2022-12-31T05:52:58.137Z,96232.50
2022-12-31T05:56:01.247Z,96227.16
2022-12-31T05:59:04.311Z,96233.28
2022-12-31T06:02:07.671Z,96233.56
2022-12-31T06:05:11.045Z,96233.56
2022-12-31T06:08:15.626Z,96235.16
2022-12-31T06:11:18.709Z,96230.38
2022-12-31T06:14:21.943Z,96235.16
2022-12-31T06:17:26.102Z,96235.16
2022-12-31T06:20:29.092Z,96229.31
2022-12-31T06:23:33.666Z,96230.66
2022-12-31T06:26:36.783Z,96245.81
2022-12-31T06:29:39.781Z,96246.34
2022-12-31T06:32:42.907Z,96254.88
2022-12-31T06:35:45.922Z,96255.94
2022-12-31T06:38:50.405Z,96257.25
2022-12-31T06:41:53.473Z,96257.25
2022-12-31T06:44:56.421Z,96261.53
2022-12-31T06:47:59.586Z,96275.91
2022-12-31T06:51:07.798Z,96270.84
2022-12-31T06:54:15.435Z,96290.00
2022-12-31T06:57:18.990Z,96288.44
2022-12-31T07:00:23.213Z,96297.72
2022-12-31T07:03:33.873Z,96293.19
2022-12-31T07:06:44.182Z,96294.13
2022-12-31T07:09:56.980Z,96301.22
2022-12-31T07:13:13.104Z,96309.38
2022-12-31T07:16:26.894Z,96288.59
2022-12-31T07:19:41.316Z,96305.63
2022-12-31T07:22:45.270Z,96317.84
2022-12-31T07:26:08.612Z,96321.56
2022-12-31T07:29:19.839Z,96314.44
2022-12-31T07:32:34.498Z,96317.47
2022-12-31T07:35:49.761Z,96326.00
2022-12-31T07:38:58.332Z,96319.88
2022-12-31T07:42:10.500Z,96321.19
2022-12-31T07:45:21.712Z,96324.94
2022-12-31T07:48:29.002Z,96336.41
2022-12-31T07:51:32.522Z,96333.75
2022-12-31T07:54:35.556Z,96330.28
2022-12-31T07:57:50.689Z,96337.19
2022-12-31T08:00:56.997Z,96330.00
2022-12-31T08:04:04.902Z,96332.38
2022-12-31T08:07:17.391Z,96324.94
2022-12-31T08:10:27.253Z,96332.94
2022-12-31T08:13:32.733Z,96343.34
2022-12-31T08:16:36.387Z,96335.34
2022-12-31T08:19:40.054Z,96324.19
2022-12-31T08:23:15.458Z,96333.50
2022-12-31T08:26:27.374Z,96338.31
2022-12-31T08:29:40.758Z,96339.06
2022-12-31T08:32:50.229Z,96337.22
2022-12-31T08:36:07.854Z,96337.00
2022-12-31T08:39:23.028Z,96335.66
2022-12-31T08:42:33.643Z,96327.16
2022-12-31T08:45:40.834Z,96341.56
2022-12-31T08:48:44.983Z,96324.56
2022-12-31T08:51:48.481Z,96330.13
2022-12-31T08:54:52.083Z,96311.75
2022-12-31T08:58:08.407Z,96330.63
2022-12-31T09:01:19.098Z,96322.63
2022-12-31T09:04:30.506Z,96318.59
2022-12-31T09:07:41.115Z,96322.34
2022-12-31T09:10:52.940Z,96324.22
2022-12-31T09:14:21.356Z,96324.47
2022-12-31T09:17:44.055Z,96317.50
2022-12-31T09:20:47.518Z,96313.72
2022-12-31T09:23:50.943Z,96318.25
2022-12-31T09:27:05.682Z,96312.66
2022-12-31T09:30:12.662Z,96311.03
2022-12-31T09:33:31.369Z,96299.28
2022-12-31T09:36:41.191Z,96289.41
2022-12-31T09:39:46.319Z,96287.56
2022-12-31T09:43:10.771Z,96272.88
2022-12-31T09:47:06.080Z,96278.50
2022-12-31T09:50:50.679Z,96270.50
2022-12-31T09:54:25.842Z,96272.88
2022-12-31T09:57:39.354Z,96260.34
2022-12-31T10:00:49.558Z,96242.53
2022-12-31T10:04:31.255Z,96246.47
2022-12-31T10:07:52.806Z,96247.25
2022-12-31T10:11:00.721Z,96200.53
2022-12-31T10:14:29.821Z,96242.44
2022-12-31T10:17:48.241Z,96238.97
2022-12-31T10:21:04.923Z,96230.97
2022-12-31T10:24:35.845Z,96234.72
2022-12-31T10:27:52.855Z,96220.13
2022-12-31T10:31:08.012Z,96226.44
2022-12-31T10:34:17.561Z,96223.53
2022-12-31T10:37:23.439Z,96220.84
2022-12-31T10:40:45.565Z,96219.22
2022-12-31T10:44:22.411Z,96215.47
2022-12-31T10:47:57.191Z,96206.41
2022-12-31T10:51:31.069Z,96205.31
2022-12-31T10:54:59.242Z,96204.28
2022-12-31T10:58:47.085Z,96210.09
2022-12-31T11:02:02.653Z,96201.56
2022-12-31T11:05:44.229Z,96203.72
2022-12-31T11:09:40.490Z,96206.41
2022-12-31T11:13:11.710Z,96205.31
2022-12-31T11:16:32.624Z,96214.84
2022-12-31T11:19:45.365Z,96194.81
2022-12-31T11:22:59.860Z,96199.38
2022-12-31T11:26:14.570Z,96190.84
2022-12-31T11:29:38.129Z,96193.25
2022-12-31T11:33:02.139Z,96183.13
2022-12-31T11:36:18.087Z,96187.16
2022-12-31T11:39:36.282Z,96175.47
2022-12-31T11:42:47.432Z,96173.09
2022-12-31T11:46:14.442Z,96177.34
2022-12-31T11:49:34.543Z,96171.00
2022-12-31T11:52:54.073Z,96165.44
2022-12-31T11:56:11.051Z,96164.41
2022-12-31T11:59:19.611Z,96159.06
2022-12-31T12:02:27.622Z,96166.56
2022-12-31T12:05:33.096Z,96157.56
2022-12-31T12:08:36.954Z,96167.91
2022-12-31T12:11:41.173Z,96168.97
2022-12-31T12:14:47.019Z,96183.09
2022-12-31T12:17:55.301Z,96184.94
2022-12-31T12:21:12.258Z,96184.91
2022-12-31T12:24:21.959Z,96187.28
2022-12-31T12:27:31.914Z,96180.03
2022-12-31T12:30:41.452Z,96175.75
2022-12-31T12:33:47.761Z,96186.13
2022-12-31T12:36:52.243Z,96186.66
2022-12-31T12:40:01.051Z,96190.91
2022-12-31T12:43:04.629Z,96192.50
2022-12-31T12:46:19.675Z,96181.91
2022-12-31T12:49:26.905Z,96196.75
2022-12-31T12:52:46.874Z,96192.50
2022-12-31T12:56:00.881Z,96187.16
2022-12-31T12:59:27.776Z,96178.94
2022-12-31T13:03:21.160Z,96194.88
2022-12-31T13:06:38.099Z,96186.38
2022-12-31T13:09:56.520Z,96189.31
2022-12-31T13:13:23.883Z,96199.19
2022-12-31T13:16:35.993Z,96204.53
2022-12-31T13:19:46.303Z,96203.50
2022-12-31T13:22:57.569Z,96214.97
2022-12-31T13:26:08.713Z,96212.00
2022-12-31T13:29:18.576Z,96216.53
2022-12-31T13:32:26.315Z,96212.56
2022-12-31T13:35:32.340Z,96219.72
2022-12-31T13:38:39.955Z,96200.06
2022-12-31T13:41:50.829Z,96218.94
2022-12-31T13:45:00.556Z,96219.22
2022-12-31T13:48:08.732Z,96217.09
2022-12-31T13:51:17.381Z,96219.22
2022-12-31T13:54:31.660Z,96223.53
2022-12-31T13:57:44.945Z,96226.47
2022-12-31T14:00:54.489Z,96218.75
2022-12-31T14:04:05.880Z,96217.97
2022-12-31T14:07:14.884Z,96225.16
2022-12-31T14:10:21.875Z,96211.63
2022-12-31T14:13:38.917Z,96218.53
2022-12-31T14:16:49.715Z,96226.47
2022-12-31T14:20:03.823Z,96220.13
2022-12-31T14:23:19.266Z,96224.09
2022-12-31T14:26:27.667Z,96207.13
2022-12-31T14:29:36.643Z,96218.47
2022-12-31T14:33:10.855Z,96209.22
2022-12-31T14:36:27.423Z,96206.06
2022-12-31T14:39:45.262Z,96206.09
2022-12-31T14:43:05.636Z,96209.56
2022-12-31T14:46:19.750Z,96202.34
2022-12-31T14:49:38.161Z,96203.44
2022-12-31T14:52:51.813Z,96197.59
2022-12-31T14:55:59.728Z,96200.81
2022-12-31T14:59:03.946Z,96209.84
2022-12-31T15:02:29.350Z,96207.72
2022-12-31T15:05:34.071Z,96215.50
2022-12-31T15:08:47.890Z,96224.28
2022-12-31T15:12:12.375Z,96228.59
2022-12-31T15:15:33.420Z,96228.84
2022-12-31T15:19:15.301Z,96218.75
2022-12-31T15:22:37.625Z,96228.63
2022-12-31T15:25:47.413Z,96236.06
2022-12-31T15:28:59.533Z,96238.22
2022-12-31T15:32:05.246Z,96253.97
2022-12-31T15:35:30.800Z,96241.72
2022-12-31T15:38:37.583Z,96247.59
2022-12-31T15:42:10.468Z,96253.72
2022-12-31T15:45:13.557Z,96248.41
2022-12-31T15:48:22.200Z,96242.53
2022-12-31T15:51:31.772Z,96246.28
2022-12-31T15:54:39.613Z,96244.88
2022-12-31T15:57:44.468Z,96245.66
2022-12-31T16:01:02.581Z,96254.75
2022-12-31T16:04:07.387Z,96267.72
2022-12-31T16:07:13.518Z,96271.41
2022-12-31T16:10:22.819Z,96265.78
2022-12-31T16:13:28.480Z,96283.59
2022-12-31T16:16:33.477Z,96277.47
2022-12-31T16:19:54.282Z,96295.81
2022-12-31T16:23:01.911Z,96300.88
2022-12-31T16:26:05.517Z,96307.28
2022-12-31T16:29:15.105Z,96305.13
2022-12-31T16:32:20.001Z,96315.25
2022-12-31T16:35:25.744Z,96319.75
2022-12-31T16:38:35.603Z,96312.34
2022-12-31T16:41:43.935Z,96320.84
2022-12-31T16:44:47.416Z,96322.72
2022-12-31T16:47:50.605Z,96331.22
2022-12-31T16:50:56.894Z,96320.56
2022-12-31T16:54:03.744Z,96330.72
2022-12-31T16:57:10.980Z,96319.56
2022-12-31T17:00:20.874Z,96310.03
2022-12-31T17:03:26.494Z,96336.59
2022-12-31T17:06:33.855Z,96227.38
2022-12-31T17:09:39.838Z,96341.19
2022-12-31T17:13:25.575Z,96335.38
2022-12-31T17:16:10.297Z,96349.75
2022-12-31T17:19:36.623Z,96343.66
2022-12-31T17:22:44.265Z,96358.88
2022-12-31T17:25:48.844Z,96343.69
2022-12-31T17:28:55.415Z,96324.00
2022-12-31T17:32:05.487Z,96366.03
2022-12-31T17:35:29.351Z,96364.44
2022-12-31T17:38:34.494Z,96358.63
2022-12-31T17:41:39.466Z,96351.72
2022-12-31T17:44:45.502Z,96343.69
2022-12-31T17:47:51.200Z,96335.72
2022-12-31T17:50:56.028Z,96304.88
2022-12-31T17:54:01.469Z,96369.19
2022-12-31T17:57:06.666Z,96347.94
2022-12-31T18:00:19.213Z,96368.16
2022-12-31T18:03:22.627Z,96348.22
2022-12-31T18:06:26.763Z,96314.47
2022-12-31T18:09:29.976Z,96361.03
2022-12-31T18:12:34.719Z,96379.13
2022-12-31T18:15:38.608Z,96375.66
2022-12-31T18:18:45.519Z,96262.38
2022-12-31T18:21:48.983Z,96354.38
2022-12-31T18:24:54.688Z,96291.63
2022-12-31T18:28:00.640Z,96338.16
2022-12-31T18:31:04.450Z,96361.84
2022-12-31T18:34:07.709Z,96321.38
2022-12-31T18:37:18.028Z,96345.38
2022-12-31T18:40:24.821Z,96252.81
2022-12-31T18:43:29.608Z,96378.91
2022-12-31T18:46:32.831Z,96363.47
2022-12-31T18:49:36.177Z,96374.09
2022-12-31T18:52:41.237Z,96351.22
2022-12-31T18:55:49.183Z,96353.63
2022-12-31T18:58:54.078Z,96396.75
2022-12-31T19:01:57.739Z,96373.59
2022-12-31T19:05:01.032Z,96225.72
2022-12-31T19:08:04.429Z,96384.25
2022-12-31T19:11:07.859Z,96382.41
2022-12-31T19:14:16.343Z,96376.81
2022-12-31T19:17:21.631Z,96353.13
2022-12-31T19:20:25.008Z,96397.03
2022-12-31T19:23:28.387Z,96392.25
2022-12-31T19:26:31.613Z,96394.91
2022-12-31T19:29:36.236Z,96341.69
2022-12-31T19:32:39.651Z,96391.16
2022-12-31T19:35:43.245Z,96384.75
2022-12-31T19:38:46.991Z,96388.00
2022-12-31T19:41:56.475Z,96388.25
2022-12-31T19:45:06.973Z,96324.09
2022-12-31T19:48:13.076Z,96371.44
2022-12-31T19:51:19.081Z,96391.44
2022-12-31T19:54:22.345Z,96366.13
2022-12-31T19:57:25.459Z,96390.91
2022-12-31T20:00:31.877Z,96341.66
2022-12-31T20:03:35.615Z,96396.50
2022-12-31T20:06:39.070Z,96373.88
2022-12-31T20:09:42.467Z,96413.00
2022-12-31T20:12:45.632Z,96414.38
2022-12-31T20:15:50.223Z,96389.03
2022-12-31T20:18:53.959Z,96421.56
2022-12-31T20:21:57.496Z,96381.59
2022-12-31T20:25:00.839Z,96406.09
2022-12-31T20:28:04.318Z,96297.53
2022-12-31T20:31:10.289Z,96428.19
2022-12-31T20:34:13.766Z,96434.88
2022-12-31T20:37:17.218Z,96415.13
2022-12-31T20:40:20.495Z,96337.97
2022-12-31T20:43:23.936Z,96417.53
2022-12-31T20:46:30.923Z,96430.88
2022-12-31T20:50:09.286Z,96416.47
2022-12-31T20:52:57.816Z,96384.28
2022-12-31T20:56:05.457Z,96406.13
2022-12-31T20:59:10.232Z,96423.38
2022-12-31T21:02:21.272Z,96426.34
2022-12-31T21:05:25.664Z,96403.94
2022-12-31T21:08:34.528Z,96409.84
2022-12-31T21:11:55.872Z,96414.59
2022-12-31T21:14:59.187Z,96405.25
2022-12-31T21:18:04.069Z,96341.41
2022-12-31T21:21:07.415Z,96403.13
2022-12-31T21:24:10.939Z,96414.09
2022-12-31T21:27:14.345Z,96373.09
2022-12-31T21:30:19.323Z,96421.56
2022-12-31T21:33:24.657Z,96418.09
2022-12-31T21:36:27.912Z,96421.00
2022-12-31T21:39:31.002Z,96423.66
2022-12-31T21:42:34.490Z,96413.28
2022-12-31T21:45:37.944Z,96350.75
2022-12-31T21:48:42.657Z,96384.78
2022-12-31T21:52:14.952Z,96419.66
2022-12-31T21:55:35.410Z,96420.47
2022-12-31T21:58:39.708Z,96411.16
2022-12-31T22:02:00.582Z,96425.81
2022-12-31T22:05:16.391Z,96429.00
2022-12-31T22:08:24.352Z,96406.94
2022-12-31T22:11:28.855Z,96427.41
2022-12-31T22:14:31.857Z,96390.91
2022-12-31T22:17:34.935Z,96384.31
2022-12-31T22:20:41.498Z,96392.81
2022-12-31T22:23:45.021Z,96429.56
2022-12-31T22:26:48.514Z,96277.56
2022-12-31T22:29:51.822Z,96378.97
2022-12-31T22:32:55.079Z,96415.69
2022-12-31T22:36:01.588Z,96439.66
2022-12-31T22:39:05.053Z,96435.13
2022-12-31T22:42:08.151Z,96447.13
2022-12-31T22:45:12.255Z,96412.25
2022-12-31T22:48:15.471Z,96451.09
2022-12-31T22:51:20.742Z,96449.22
2022-12-31T22:54:24.136Z,96392.53
2022-12-31T22:57:27.497Z,96445.78
2022-12-31T23:00:41.827Z,96435.91
2022-12-31T23:03:45.498Z,96435.41
2022-12-31T23:06:49.983Z,96438.56
2022-12-31T23:10:10.402Z,96454.56
2022-12-31T23:13:31.559Z,96439.66
2022-12-31T23:16:52.080Z,96434.34
2022-12-31T23:20:12.895Z,96454.56
2022-12-31T23:23:17.961Z,96447.13
2022-12-31T23:26:21.462Z,96450.84
2022-12-31T23:29:24.895Z,96409.31
2022-12-31T23:32:27.949Z,96444.44
2022-12-31T23:35:31.191Z,96438.31
2022-12-31T23:38:36.023Z,96430.34
2022-12-31T23:41:39.349Z,96403.44
2022-12-31T23:44:44.530Z,96384.56
2022-12-31T23:47:47.927Z,96435.94
2022-12-31T23:50:54.121Z,96422.13
2022-12-31T23:53:59.400Z,96438.06
2022-12-31T23:57:02.564Z,96412.50
